Time,TemperatureF,DewpointF,PressureIn,WindDirection,WindDirectionDegrees,WindSpeedMPH,WindSpeedGustMPH,Humidity,HourlyPrecipIn,Conditions,Clouds,dailyrainin,SoftwareType,DateUTC
2013-10-06 00:01:00,67.4,65.3,29.91,North,5,0.0,0.0,93,0.00,,,0.00,WeatherCatV1.21B27,2013-10-06 04:01:00,
2013-10-06 00:02:00,67.5,65.4,29.91,North,5,0.0,0.0,93,0.00,,,0.00,WeatherCatV1.21B27,2013-10-06 04:02:00,
2013-10-06 00:03:00,67.5,65.4,29.91,North,0,0.0,0.0,93,0.00,,,0.00,WeatherCatV1.21B27,2013-10-06 04:03:00,
2013-10-06 00:04:00,67.6,65.5,29.91,North,0,0.0,0.0,93,0.00,,,0.00,WeatherCatV1.21B27,2013-10-06 04:04:00,
2013-10-06 00:08:00,67.7,65.6,29.91,North,5,0.0,0.0,93,0.00,,,0.00,WeatherCatV1.21B27,2013-10-06 04:08:00,
2013-10-06 00:11:00,67.9,65.8,29.91,North,5,0.0,0.0,93,0.00,,,0.00,WeatherCatV1.21B27,2013-10-06 04:11:00,
2013-10-06 00:16:00,68.1,66.0,29.90,North,0,0.0,0.0,93,0.00,,,0.00,WeatherCatV1.21B27,2013-10-06 04:16:00,
2013-10-06 00:21:00,68.5,66.4,29.91,North,5,0.0,0.0,93,0.00,,,0.00,WeatherCatV1.21B27,2013-10-06 04:21:00,
2013-10-06 00:26:00,68.7,66.6,29.90,North,5,0.0,0.0,93,0.00,,,0.00,WeatherCatV1.21B27,2013-10-06 04:26:00,
2013-10-06 00:31:00,68.9,66.8,29.90,North,5,0.0,0.0,93,0.00,,,0.00,WeatherCatV1.21B27,2013-10-06 04:31:00,
2013-10-06 00:36:00,68.9,66.8,29.90,North,0,0.0,0.0,93,0.00,,,0.00,WeatherCatV1.21B27,2013-10-06 04:36:00,
2013-10-06 00:41:00,69.1,67.0,29.89,North,5,0.0,0.0,93,0.00,,,0.00,WeatherCatV1.21B27,2013-10-06 04:41:00,
2013-10-06 00:46:00,69.3,67.2,29.89,North,9,0.0,0.0,93,0.00,,,0.00,WeatherCatV1.21B27,2013-10-06 04:46:00,
2013-10-06 00:51:00,69.3,67.2,29.89,North,9,0.0,0.0,93,0.00,,,0.01,WeatherCatV1.21B27,2013-10-06 04:51:00,
2013-10-06 00:56:00,69.3,67.2,29.89,North,9,0.0,0.0,93,0.00,,,0.01,WeatherCatV1.21B27,2013-10-06 04:56:00,
2013-10-06 01:01:00,69.3,67.2,29.89,North,9,0.0,1.0,93,0.00,,,0.01,WeatherCatV1.21B27,2013-10-06 05:01:00,
2013-10-06 01:06:00,69.3,67.2,29.88,North,9,0.0,0.0,93,0.00,,,0.01,WeatherCatV1.21B27,2013-10-06 05:06:00,
2013-10-06 01:11:00,69.3,67.2,29.88,North,9,0.0,0.0,93,0.00,,,0.01,WeatherCatV1.21B27,2013-10-06 05:11:00,
2013-10-06 01:16:00,69.3,67.2,29.88,North,9,0.0,0.0,93,0.00,,,0.01,WeatherCatV1.21B27,2013-10-06 05:16:00,
2013-10-06 01:21:00,69.3,67.2,29.88,North,5,1.0,1.0,93,0.00,,,0.01,WeatherCatV1.21B27,2013-10-06 05:21:00,
2013-10-06 01:26:00,69.3,67.2,29.88,North,5,0.0,0.0,93,0.00,,,0.01,WeatherCatV1.21B27,2013-10-06 05:26:00,
2013-10-06 01:31:00,69.2,67.1,29.88,North,0,0.0,0.0,93,0.00,,,0.01,WeatherCatV1.21B27,2013-10-06 05:31:00,
2013-10-06 01:36:00,69.2,67.1,29.88,North,5,0.0,0.0,93,0.00,,,0.01,WeatherCatV1.21B27,2013-10-06 05:36:00,
2013-10-06 01:41:00,69.1,67.0,29.88,North,5,0.0,0.0,93,0.00,,,0.01,WeatherCatV1.21B27,2013-10-06 05:41:00,
2013-10-06 01:46:00,69.0,66.9,29.88,North,5,0.0,0.0,93,0.00,,,0.01,WeatherCatV1.21B27,2013-10-06 05:46:00,
2013-10-06 01:51:00,68.9,66.8,29.88,North,5,0.0,0.0,93,0.00,,,0.01,WeatherCatV1.21B27,2013-10-06 05:51:00,
2013-10-06 01:56:00,68.9,66.8,29.88,North,5,0.0,0.0,93,0.00,,,0.01,WeatherCatV1.21B27,2013-10-06 05:56:00,
2013-10-06 02:01:00,68.9,66.8,29.88,North,5,0.0,0.0,93,0.00,,,0.01,WeatherCatV1.21B27,2013-10-06 06:01:00,
2013-10-06 02:06:00,68.8,66.7,29.88,North,5,0.0,0.0,93,0.00,,,0.01,WeatherCatV1.21B27,2013-10-06 06:06:00,
2013-10-06 02:11:00,68.8,66.7,29.88,North,351,0.0,1.0,93,0.00,,,0.01,WeatherCatV1.21B27,2013-10-06 06:11:00,
2013-10-06 02:16:00,68.7,66.6,29.88,North,351,0.0,0.0,93,0.00,,,0.01,WeatherCatV1.21B27,2013-10-06 06:16:00,
2013-10-06 02:21:00,68.6,66.5,29.88,North,351,0.0,0.0,93,0.00,,,0.01,WeatherCatV1.21B27,2013-10-06 06:21:00,
2013-10-06 02:26:00,68.6,66.5,29.88,North,350,0.0,0.0,93,0.00,,,0.01,WeatherCatV1.21B27,2013-10-06 06:26:00,
2013-10-06 02:31:00,68.6,66.5,29.88,North,350,0.0,0.0,93,0.00,,,0.01,WeatherCatV1.21B27,2013-10-06 06:31:00,
2013-10-06 02:36:00,68.5,66.4,29.87,North,351,0.0,0.0,93,0.00,,,0.01,WeatherCatV1.21B27,2013-10-06 06:36:00,
2013-10-06 02:41:00,68.4,66.3,29.87,North,350,0.0,0.0,93,0.00,,,0.01,WeatherCatV1.21B27,2013-10-06 06:41:00,
2013-10-06 02:46:00,68.4,66.3,29.87,North,351,0.0,0.0,93,0.00,,,0.01,WeatherCatV1.21B27,2013-10-06 06:46:00,
2013-10-06 02:51:00,68.4,66.3,29.87,North,350,0.0,0.0,93,0.00,,,0.01,WeatherCatV1.21B27,2013-10-06 06:51:00,
2013-10-06 02:56:00,68.3,66.2,29.86,North,351,0.0,0.0,93,0.00,,,0.01,WeatherCatV1.21B27,2013-10-06 06:56:00,
2013-10-06 03:01:00,68.3,66.2,29.87,North,351,0.0,0.0,93,0.00,,,0.01,WeatherCatV1.21B27,2013-10-06 07:01:00,
2013-10-06 03:06:00,68.4,66.3,29.86,North,350,0.0,0.0,93,0.00,,,0.01,WeatherCatV1.21B27,2013-10-06 07:06:00,
2013-10-06 03:11:00,68.4,66.3,29.86,North,350,0.0,0.0,93,0.00,,,0.01,WeatherCatV1.21B27,2013-10-06 07:11:00,
2013-10-06 03:16:00,68.5,66.4,29.86,North,350,0.0,1.0,93,0.00,,,0.01,WeatherCatV1.21B27,2013-10-06 07:16:00,
2013-10-06 03:21:00,68.6,66.5,29.86,North,350,0.0,0.0,93,0.00,,,0.01,WeatherCatV1.21B27,2013-10-06 07:21:00,
2013-10-06 03:26:00,68.6,66.5,29.86,North,350,0.0,0.0,93,0.00,,,0.01,WeatherCatV1.21B27,2013-10-06 07:26:00,
2013-10-06 03:31:00,68.6,66.5,29.86,North,351,0.0,0.0,93,0.00,,,0.01,WeatherCatV1.21B27,2013-10-06 07:31:00,
2013-10-06 03:36:00,68.7,66.6,29.86,East,88,0.0,0.0,93,0.00,,,0.01,WeatherCatV1.21B27,2013-10-06 07:36:00,
2013-10-06 03:41:00,68.8,66.7,29.86,East,88,0.0,0.0,93,0.00,,,0.01,WeatherCatV1.21B27,2013-10-06 07:41:00,
2013-10-06 03:46:00,68.9,66.8,29.86,East,90,1.0,2.0,93,0.00,,,0.01,WeatherCatV1.21B27,2013-10-06 07:46:00,
2013-10-06 03:51:00,69.0,66.9,29.85,East,90,0.0,0.0,93,0.00,,,0.01,WeatherCatV1.21B27,2013-10-06 07:51:00,
2013-10-06 03:56:00,69.0,66.9,29.85,East,90,0.0,0.0,93,0.00,,,0.01,WeatherCatV1.21B27,2013-10-06 07:56:00,
2013-10-06 04:01:00,69.1,67.0,29.85,East,90,0.0,0.0,93,0.00,,,0.01,WeatherCatV1.21B27,2013-10-06 08:01:00,
2013-10-06 04:06:00,69.0,66.9,29.85,East,90,0.0,0.0,93,0.00,,,0.01,WeatherCatV1.21B27,2013-10-06 08:06:00,
2013-10-06 04:11:00,69.0,66.9,29.85,East,90,0.0,0.0,93,0.00,,,0.01,WeatherCatV1.21B27,2013-10-06 08:11:00,
2013-10-06 04:16:00,69.0,66.9,29.85,East,90,0.0,0.0,93,0.00,,,0.01,WeatherCatV1.21B27,2013-10-06 08:16:00,
2013-10-06 04:21:00,68.9,66.8,29.85,East,90,0.0,0.0,93,0.00,,,0.01,WeatherCatV1.21B27,2013-10-06 08:21:00,
2013-10-06 04:26:00,68.9,66.8,29.85,East,90,0.0,0.0,93,0.00,,,0.01,WeatherCatV1.21B27,2013-10-06 08:26:00,
2013-10-06 04:31:00,68.9,66.8,29.85,East,90,0.0,1.0,93,0.00,,,0.01,WeatherCatV1.21B27,2013-10-06 08:31:00,
2013-10-06 04:36:00,69.0,66.9,29.85,East,90,0.0,0.0,93,0.00,,,0.01,WeatherCatV1.21B27,2013-10-06 08:36:00,
2013-10-06 04:42:00,69.0,66.9,29.85,ESE,112,0.0,3.0,93,0.00,,,0.01,WeatherCatV1.21B27,2013-10-06 08:42:00,
2013-10-06 04:47:00,69.0,66.9,29.85,NW,304,0.0,1.0,93,0.00,,,0.01,WeatherCatV1.21B27,2013-10-06 08:47:00,
2013-10-06 04:52:00,69.1,67.0,29.85,NW,304,0.0,0.0,93,0.00,,,0.01,WeatherCatV1.21B27,2013-10-06 08:52:00,
2013-10-06 04:57:00,69.1,67.0,29.85,NW,304,0.0,0.0,93,0.00,,,0.01,WeatherCatV1.21B27,2013-10-06 08:57:00,
2013-10-06 05:02:00,69.1,67.0,29.85,WNW,303,0.0,0.0,93,0.00,,,0.01,WeatherCatV1.21B27,2013-10-06 09:02:00,
2013-10-06 05:07:00,69.0,66.9,29.85,NW,304,0.0,0.0,93,0.00,,,0.01,WeatherCatV1.21B27,2013-10-06 09:07:00,
2013-10-06 05:09:00,69.0,66.9,29.86,WNW,303,1.0,2.0,93,0.00,,,0.01,WeatherCatV1.21B27,2013-10-06 09:09:00,
2013-10-06 05:14:00,69.0,66.9,29.86,NE,44,0.0,2.0,93,0.00,,,0.01,WeatherCatV1.21B27,2013-10-06 09:14:00,
2013-10-06 05:19:00,69.0,66.9,29.85,NE,45,0.0,0.0,93,0.00,,,0.01,WeatherCatV1.21B27,2013-10-06 09:19:00,
2013-10-06 05:24:00,69.0,66.9,29.85,NE,46,0.0,1.0,93,0.00,,,0.01,WeatherCatV1.21B27,2013-10-06 09:24:00,
2013-10-06 05:29:00,69.0,66.9,29.85,NE,46,1.0,3.0,93,0.00,,,0.01,WeatherCatV1.21B27,2013-10-06 09:29:00,
2013-10-06 05:34:00,69.0,66.9,29.86,NE,46,2.0,4.0,93,0.00,,,0.01,WeatherCatV1.21B27,2013-10-06 09:34:00,
2013-10-06 05:39:00,69.0,66.9,29.85,NE,46,0.0,0.0,93,0.00,,,0.01,WeatherCatV1.21B27,2013-10-06 09:39:00,
2013-10-06 05:44:00,68.9,66.8,29.86,NE,46,0.0,0.0,93,0.00,,,0.01,WeatherCatV1.21B27,2013-10-06 09:44:00,
2013-10-06 05:49:00,68.9,66.8,29.85,NE,46,0.0,0.0,93,0.00,,,0.01,WeatherCatV1.21B27,2013-10-06 09:49:00,
2013-10-06 05:54:00,68.9,66.8,29.85,NE,46,0.0,0.0,93,0.00,,,0.01,WeatherCatV1.21B27,2013-10-06 09:54:00,
2013-10-06 05:59:00,68.8,66.7,29.86,NE,46,0.0,0.0,93,0.00,,,0.01,WeatherCatV1.21B27,2013-10-06 09:59:00,
2013-10-06 06:04:00,68.8,66.7,29.86,NE,46,0.0,0.0,93,0.00,,,0.01,WeatherCatV1.21B27,2013-10-06 10:04:00,
2013-10-06 06:09:00,68.7,66.6,29.86,NE,46,0.0,0.0,93,0.00,,,0.01,WeatherCatV1.21B27,2013-10-06 10:09:00,
2013-10-06 06:14:00,68.7,66.6,29.86,NE,46,0.0,0.0,93,0.00,,,0.01,WeatherCatV1.21B27,2013-10-06 10:14:00,
2013-10-06 06:19:00,68.7,66.6,29.85,NE,46,0.0,0.0,93,0.00,,,0.01,WeatherCatV1.21B27,2013-10-06 10:19:00,
2013-10-06 06:24:00,68.6,66.5,29.85,NE,46,0.0,0.0,93,0.00,,,0.01,WeatherCatV1.21B27,2013-10-06 10:24:00,
2013-10-06 06:29:00,68.6,66.5,29.86,NE,46,0.0,0.0,93,0.00,,,0.01,WeatherCatV1.21B27,2013-10-06 10:29:00,
2013-10-06 06:34:00,68.6,66.5,29.85,NE,55,0.0,0.0,93,0.00,,,0.01,WeatherCatV1.21B27,2013-10-06 10:34:00,
2013-10-06 06:39:00,68.5,66.4,29.85,NE,55,0.0,0.0,93,0.00,,,0.01,WeatherCatV1.21B27,2013-10-06 10:39:00,
2013-10-06 06:44:00,68.6,66.5,29.85,NE,55,0.0,0.0,93,0.00,,,0.01,WeatherCatV1.21B27,2013-10-06 10:44:00,
2013-10-06 06:49:00,68.6,66.5,29.85,NE,55,0.0,0.0,93,0.00,,,0.01,WeatherCatV1.21B27,2013-10-06 10:49:00,
2013-10-06 06:54:00,68.6,66.5,29.86,NE,55,0.0,0.0,93,0.00,,,0.01,WeatherCatV1.21B27,2013-10-06 10:54:00,
2013-10-06 06:59:00,68.5,66.4,29.85,NE,55,0.0,0.0,93,0.00,,,0.01,WeatherCatV1.21B27,2013-10-06 10:59:00,
2013-10-06 07:04:00,68.5,66.4,29.86,NE,55,0.0,0.0,93,0.00,,,0.01,WeatherCatV1.21B27,2013-10-06 11:04:00,
2013-10-06 07:09:00,68.6,66.5,29.86,NE,55,0.0,0.0,93,0.00,,,0.01,WeatherCatV1.21B27,2013-10-06 11:09:00,
2013-10-06 07:14:00,68.5,66.4,29.85,NE,55,0.0,0.0,93,0.00,,,0.01,WeatherCatV1.21B27,2013-10-06 11:14:00,
2013-10-06 07:19:00,68.5,66.4,29.85,NE,55,0.0,0.0,93,0.00,,,0.01,WeatherCatV1.21B27,2013-10-06 11:19:00,
2013-10-06 07:24:00,68.5,66.4,29.85,NE,55,0.0,0.0,93,0.00,,,0.01,WeatherCatV1.21B27,2013-10-06 11:24:00,
2013-10-06 07:29:00,68.5,66.4,29.85,NE,55,0.0,0.0,93,0.00,,,0.01,WeatherCatV1.21B27,2013-10-06 11:29:00,
2013-10-06 07:34:00,68.5,66.4,29.85,NE,55,0.0,0.0,93,0.00,,,0.01,WeatherCatV1.21B27,2013-10-06 11:34:00,
2013-10-06 07:39:00,68.4,66.3,29.85,NE,55,0.0,0.0,93,0.00,,,0.01,WeatherCatV1.21B27,2013-10-06 11:39:00,
2013-10-06 07:44:00,68.5,66.4,29.85,NE,55,0.0,0.0,93,0.00,,,0.01,WeatherCatV1.21B27,2013-10-06 11:44:00,
2013-10-06 07:49:00,68.5,66.4,29.85,NE,55,0.0,0.0,93,0.00,,,0.01,WeatherCatV1.21B27,2013-10-06 11:49:00,
2013-10-06 07:54:00,68.6,66.5,29.85,NE,55,0.0,0.0,93,0.00,,,0.01,WeatherCatV1.21B27,2013-10-06 11:54:00,
2013-10-06 07:59:00,68.6,66.5,29.85,NE,55,0.0,0.0,93,0.00,,,0.01,WeatherCatV1.21B27,2013-10-06 11:59:00,
2013-10-06 08:04:00,68.6,66.5,29.85,NE,55,0.0,0.0,93,0.00,,,0.01,WeatherCatV1.21B27,2013-10-06 12:04:00,
2013-10-06 08:09:00,68.6,66.5,29.85,NE,55,0.0,0.0,93,0.00,,,0.02,WeatherCatV1.21B27,2013-10-06 12:09:00,
2013-10-06 08:14:00,68.7,66.6,29.86,NE,55,0.0,0.0,93,0.00,,,0.02,WeatherCatV1.21B27,2013-10-06 12:14:00,
2013-10-06 08:19:00,68.8,66.7,29.86,NE,55,0.0,0.0,93,0.00,,,0.02,WeatherCatV1.21B27,2013-10-06 12:19:00,
2013-10-06 08:24:00,68.9,66.8,29.86,NE,55,0.0,0.0,93,0.00,,,0.02,WeatherCatV1.21B27,2013-10-06 12:24:00,
2013-10-06 08:29:00,68.9,66.8,29.85,NE,55,0.0,0.0,93,0.00,,,0.02,WeatherCatV1.21B27,2013-10-06 12:29:00,
2013-10-06 08:34:00,68.9,66.8,29.85,NE,55,0.0,0.0,93,0.00,,,0.02,WeatherCatV1.21B27,2013-10-06 12:34:00,
2013-10-06 08:39:00,69.0,66.9,29.85,NE,55,0.0,0.0,93,0.00,,,0.02,WeatherCatV1.21B27,2013-10-06 12:39:00,
2013-10-06 08:44:00,69.2,67.1,29.85,NE,55,0.0,0.0,93,0.00,,,0.02,WeatherCatV1.21B27,2013-10-06 12:44:00,
2013-10-06 08:49:00,69.3,67.2,29.85,NE,55,0.0,0.0,93,0.00,,,0.02,WeatherCatV1.21B27,2013-10-06 12:49:00,
2013-10-06 08:54:00,69.4,67.3,29.84,NE,55,0.0,0.0,93,0.00,,,0.02,WeatherCatV1.21B27,2013-10-06 12:54:00,
2013-10-06 08:59:00,69.5,67.4,29.84,NE,55,0.0,0.0,93,0.00,,,0.02,WeatherCatV1.21B27,2013-10-06 12:59:00,
2013-10-06 09:04:00,69.5,67.4,29.84,NE,55,0.0,0.0,93,0.00,,,0.02,WeatherCatV1.21B27,2013-10-06 13:04:00,
2013-10-06 09:09:00,69.5,67.4,29.84,NE,55,0.0,0.0,93,0.00,,,0.02,WeatherCatV1.21B27,2013-10-06 13:09:00,
2013-10-06 09:14:00,69.5,67.4,29.84,NE,55,0.0,0.0,93,0.00,,,0.02,WeatherCatV1.21B27,2013-10-06 13:14:00,
2013-10-06 09:19:00,69.6,67.5,29.84,NE,55,0.0,0.0,93,0.00,,,0.02,WeatherCatV1.21B27,2013-10-06 13:19:00,
2013-10-06 09:24:00,69.8,67.7,29.84,NNE,30,0.0,0.0,93,0.00,,,0.02,WeatherCatV1.21B27,2013-10-06 13:24:00,
2013-10-06 09:29:00,70.2,68.4,29.84,NNE,29,0.0,0.0,94,0.00,,,0.02,WeatherCatV1.21B27,2013-10-06 13:29:00,
2013-10-06 09:34:00,70.4,68.3,29.84,NNE,30,0.0,0.0,93,0.00,,,0.02,WeatherCatV1.21B27,2013-10-06 13:34:00,
2013-10-06 09:39:00,70.3,68.2,29.83,NNE,30,0.0,0.0,93,0.00,,,0.02,WeatherCatV1.21B27,2013-10-06 13:39:00,
2013-10-06 09:44:00,70.5,68.4,29.83,NNE,29,0.0,0.0,93,0.00,,,0.02,WeatherCatV1.21B27,2013-10-06 13:44:00,
2013-10-06 09:49:00,70.5,68.4,29.83,NNE,29,0.0,0.0,93,0.00,,,0.02,WeatherCatV1.21B27,2013-10-06 13:49:00,
2013-10-06 09:54:00,70.9,68.8,29.83,NNE,29,0.0,0.0,93,0.00,,,0.02,WeatherCatV1.21B27,2013-10-06 13:54:00,
2013-10-06 09:59:00,71.6,69.8,29.83,NNE,30,0.0,0.0,94,0.00,,,0.02,WeatherCatV1.21B27,2013-10-06 13:59:00,
2013-10-06 10:04:00,71.9,69.8,29.83,NNE,29,0.0,0.0,93,0.00,,,0.02,WeatherCatV1.21B27,2013-10-06 14:04:00,
2013-10-06 10:09:00,72.6,70.8,29.82,NNE,29,0.0,0.0,94,0.00,,,0.02,WeatherCatV1.21B27,2013-10-06 14:09:00,
2013-10-06 10:14:00,73.1,71.3,29.82,NNE,30,0.0,0.0,94,0.00,,,0.02,WeatherCatV1.21B27,2013-10-06 14:14:00,
2013-10-06 10:19:00,73.1,70.9,29.82,SE,137,0.0,0.0,93,0.00,,,0.02,WeatherCatV1.21B27,2013-10-06 14:19:00,
2013-10-06 10:24:00,73.4,71.2,29.81,SE,137,0.0,0.0,93,0.00,,,0.02,WeatherCatV1.21B27,2013-10-06 14:24:00,
2013-10-06 10:29:00,73.3,71.2,29.82,East,94,0.0,0.0,93,0.00,,,0.02,WeatherCatV1.21B27,2013-10-06 14:29:00,
2013-10-06 10:34:00,73.6,71.4,29.81,ESE,102,0.0,0.0,93,0.00,,,0.02,WeatherCatV1.21B27,2013-10-06 14:34:00,
2013-10-06 10:39:00,73.7,71.5,29.81,ESE,120,0.0,0.0,93,0.00,,,0.02,WeatherCatV1.21B27,2013-10-06 14:39:00,
2013-10-06 10:44:00,73.8,71.3,29.81,SE,124,1.0,4.0,92,0.00,,,0.02,WeatherCatV1.21B27,2013-10-06 14:44:00,
2013-10-06 10:49:00,73.9,71.4,29.81,SE,130,0.0,0.0,92,0.00,,,0.02,WeatherCatV1.21B27,2013-10-06 14:49:00,
2013-10-06 10:54:00,74.3,71.8,29.80,SE,130,0.0,0.0,92,0.00,,,0.02,WeatherCatV1.21B27,2013-10-06 14:54:00,
2013-10-06 10:59:00,74.6,71.5,29.80,SSW,202,0.0,0.0,90,0.00,,,0.02,WeatherCatV1.21B27,2013-10-06 14:59:00,
2013-10-06 11:04:00,74.7,71.2,29.80,WSW,252,0.0,4.0,89,0.00,,,0.02,WeatherCatV1.21B27,2013-10-06 15:04:00,
2013-10-06 11:09:00,75.0,71.2,29.80,SE,136,1.0,3.0,88,0.00,,,0.02,WeatherCatV1.21B27,2013-10-06 15:09:00,
2013-10-06 11:14:00,75.1,70.9,29.80,ESE,113,0.0,4.0,87,0.00,,,0.02,WeatherCatV1.21B27,2013-10-06 15:14:00,
2013-10-06 11:19:00,75.2,70.7,29.80,ESE,107,0.0,0.0,86,0.00,,,0.02,WeatherCatV1.21B27,2013-10-06 15:19:00,
2013-10-06 11:24:00,75.7,70.9,29.79,WSW,238,1.0,2.0,85,0.00,,,0.02,WeatherCatV1.21B27,2013-10-06 15:24:00,
2013-10-06 11:29:00,76.2,71.0,29.79,SSW,204,6.0,6.0,84,0.00,,,0.02,WeatherCatV1.21B27,2013-10-06 15:29:00,
2013-10-06 11:34:00,76.6,71.0,29.79,SE,125,0.0,3.0,83,0.00,,,0.02,WeatherCatV1.21B27,2013-10-06 15:34:00,
2013-10-06 11:39:00,77.1,70.8,29.79,ESE,109,0.0,1.0,81,0.00,,,0.02,WeatherCatV1.21B27,2013-10-06 15:39:00,
2013-10-06 11:44:00,77.8,71.1,29.79,ESE,116,2.0,6.0,80,0.00,,,0.02,WeatherCatV1.21B27,2013-10-06 15:44:00,
2013-10-06 11:49:00,78.3,71.2,29.79,ESE,114,3.0,3.0,79,0.00,,,0.02,WeatherCatV1.21B27,2013-10-06 15:49:00,
2013-10-06 11:54:00,78.5,70.7,29.79,SSW,205,1.0,6.0,77,0.00,,,0.02,WeatherCatV1.21B27,2013-10-06 15:54:00,
2013-10-06 11:59:00,78.5,70.7,29.79,ESE,110,5.0,5.0,77,0.00,,,0.02,WeatherCatV1.21B27,2013-10-06 15:59:00,
2013-10-06 12:04:00,78.7,70.9,29.78,ESE,110,3.0,4.0,77,0.00,,,0.02,WeatherCatV1.21B27,2013-10-06 16:04:00,
2013-10-06 12:09:00,78.8,70.6,29.78,South,186,0.0,1.0,76,0.00,,,0.02,WeatherCatV1.21B27,2013-10-06 16:09:00,
2013-10-06 12:14:00,79.1,70.5,29.78,ESE,116,1.0,4.0,75,0.00,,,0.02,WeatherCatV1.21B27,2013-10-06 16:14:00,
2013-10-06 12:20:00,79.7,69.8,29.78,South,181,5.0,6.0,72,0.00,,,0.02,WeatherCatV1.21B27,2013-10-06 16:20:00,
2013-10-06 12:26:00,79.9,70.0,29.77,SSE,150,2.0,4.0,72,0.00,,,0.02,WeatherCatV1.21B27,2013-10-06 16:26:00,
2013-10-06 12:31:00,79.3,69.5,29.77,WNW,294,2.0,4.0,72,0.00,,,0.02,WeatherCatV1.21B27,2013-10-06 16:31:00,
2013-10-06 12:36:00,79.2,69.4,29.78,SE,142,0.0,5.0,72,0.00,,,0.02,WeatherCatV1.21B27,2013-10-06 16:36:00,
2013-10-06 12:41:00,79.4,69.6,29.78,South,183,0.0,6.0,72,0.00,,,0.02,WeatherCatV1.21B27,2013-10-06 16:41:00,
2013-10-06 12:46:00,79.2,69.8,29.78,SE,139,0.0,3.0,73,0.00,,,0.02,WeatherCatV1.21B27,2013-10-06 16:46:00,
2013-10-06 12:51:00,78.9,69.1,29.78,SSW,199,0.0,4.0,72,0.00,,,0.02,WeatherCatV1.21B27,2013-10-06 16:51:00,
2013-10-06 12:56:00,78.7,68.9,29.78,ENE,65,0.0,4.0,72,0.00,,,0.02,WeatherCatV1.21B27,2013-10-06 16:56:00,
2013-10-06 13:01:00,78.5,69.1,29.78,South,186,0.0,1.0,73,0.00,,,0.02,WeatherCatV1.21B27,2013-10-06 17:01:00,
2013-10-06 13:06:00,78.9,69.5,29.78,NE,49,3.0,5.0,73,0.00,,,0.02,WeatherCatV1.21B27,2013-10-06 17:06:00,
2013-10-06 13:11:00,79.6,70.2,29.78,ENE,71,4.0,6.0,73,0.00,,,0.02,WeatherCatV1.21B27,2013-10-06 17:11:00,
2013-10-06 13:16:00,80.1,69.0,29.77,SE,125,1.0,7.0,69,0.00,,,0.02,WeatherCatV1.21B27,2013-10-06 17:16:00,
2013-10-06 13:21:00,80.5,68.1,29.76,SW,215,4.0,8.0,66,0.00,,,0.02,WeatherCatV1.21B27,2013-10-06 17:21:00,
2013-10-06 13:26:00,80.9,68.9,29.76,ESE,119,1.0,3.0,67,0.00,,,0.02,WeatherCatV1.21B27,2013-10-06 17:26:00,
2013-10-06 13:31:00,81.2,68.3,29.76,South,171,0.0,6.0,65,0.00,,,0.02,WeatherCatV1.21B27,2013-10-06 17:31:00,
2013-10-06 13:36:00,80.9,68.0,29.76,South,178,0.0,2.0,65,0.00,,,0.02,WeatherCatV1.21B27,2013-10-06 17:36:00,
2013-10-06 13:41:00,80.3,67.9,29.76,ESE,109,1.0,4.0,66,0.00,,,0.02,WeatherCatV1.21B27,2013-10-06 17:41:00,
2013-10-06 13:46:00,79.9,67.5,29.76,SSE,148,3.0,3.0,66,0.00,,,0.02,WeatherCatV1.21B27,2013-10-06 17:46:00,
2013-10-06 13:51:00,79.6,67.7,29.75,SSE,148,0.0,12.0,67,0.00,,,0.02,WeatherCatV1.21B27,2013-10-06 17:51:00,
2013-10-06 13:56:00,79.5,68.4,29.75,ESE,107,0.0,0.0,69,0.00,,,0.02,WeatherCatV1.21B27,2013-10-06 17:56:00,
2013-10-06 14:01:00,79.5,68.4,29.75,SW,218,2.0,2.0,69,0.00,,,0.02,WeatherCatV1.21B27,2013-10-06 18:01:00,
2013-10-06 14:06:00,79.3,67.8,29.75,East,86,3.0,3.0,68,0.00,,,0.02,WeatherCatV1.21B27,2013-10-06 18:06:00,
2013-10-06 14:11:00,79.2,67.7,29.75,SE,135,2.0,2.0,68,0.00,,,0.02,WeatherCatV1.21B27,2013-10-06 18:11:00,
2013-10-06 14:16:00,79.2,67.7,29.75,South,182,1.0,3.0,68,0.00,,,0.02,WeatherCatV1.21B27,2013-10-06 18:16:00,
2013-10-06 14:21:00,79.3,67.8,29.75,SSW,192,0.0,3.0,68,0.00,,,0.02,WeatherCatV1.21B27,2013-10-06 18:21:00,
2013-10-06 14:26:00,79.6,68.9,29.74,ESE,123,4.0,4.0,70,0.00,,,0.02,WeatherCatV1.21B27,2013-10-06 18:26:00,
2013-10-06 14:31:00,79.7,68.6,29.74,ESE,122,1.0,4.0,69,0.00,,,0.02,WeatherCatV1.21B27,2013-10-06 18:31:00,
2013-10-06 14:36:00,79.4,68.3,29.74,ESE,113,0.0,4.0,69,0.00,,,0.02,WeatherCatV1.21B27,2013-10-06 18:36:00,
2013-10-06 14:41:00,79.2,67.7,29.74,SSW,192,0.0,2.0,68,0.00,,,0.02,WeatherCatV1.21B27,2013-10-06 18:41:00,
2013-10-06 14:46:00,79.4,67.5,29.74,East,88,3.0,9.0,67,0.00,,,0.02,WeatherCatV1.21B27,2013-10-06 18:46:00,
2013-10-06 14:51:00,79.3,67.8,29.74,ESE,102,0.0,3.0,68,0.00,,,0.02,WeatherCatV1.21B27,2013-10-06 18:51:00,
2013-10-06 14:56:00,79.1,68.0,29.74,SSW,195,0.0,4.0,69,0.00,,,0.02,WeatherCatV1.21B27,2013-10-06 18:56:00,
2013-10-06 15:01:00,78.9,68.3,29.73,SSE,166,3.0,3.0,70,0.00,,,0.02,WeatherCatV1.21B27,2013-10-06 19:01:00,
2013-10-06 15:06:00,78.8,67.8,29.73,SSW,213,2.0,5.0,69,0.00,,,0.02,WeatherCatV1.21B27,2013-10-06 19:06:00,
2013-10-06 15:11:00,78.5,67.5,29.73,ESE,123,1.0,3.0,69,0.00,,,0.02,WeatherCatV1.21B27,2013-10-06 19:11:00,
2013-10-06 15:16:00,78.4,67.4,29.73,ENE,69,0.0,6.0,69,0.00,,,0.02,WeatherCatV1.21B27,2013-10-06 19:16:00,
2013-10-06 15:21:00,78.5,67.9,29.73,East,96,0.0,0.0,70,0.00,,,0.02,WeatherCatV1.21B27,2013-10-06 19:21:00,
2013-10-06 15:26:00,78.6,68.4,29.73,SE,144,0.0,4.0,71,0.00,,,0.02,WeatherCatV1.21B27,2013-10-06 19:26:00,
2013-10-06 15:31:00,78.6,67.6,29.72,ESE,117,0.0,3.0,69,0.00,,,0.02,WeatherCatV1.21B27,2013-10-06 19:31:00,
2013-10-06 15:36:00,78.8,68.6,29.72,SE,130,3.0,4.0,71,0.00,,,0.02,WeatherCatV1.21B27,2013-10-06 19:36:00,
2013-10-06 15:41:00,78.9,68.3,29.72,NNE,22,2.0,2.0,70,0.00,,,0.02,WeatherCatV1.21B27,2013-10-06 19:41:00,
2013-10-06 15:46:00,78.7,68.1,29.71,SE,133,0.0,0.0,70,0.00,,,0.02,WeatherCatV1.21B27,2013-10-06 19:46:00,
2013-10-06 15:51:00,78.7,68.5,29.71,East,80,0.0,1.0,71,0.00,,,0.02,WeatherCatV1.21B27,2013-10-06 19:51:00,
2013-10-06 15:56:00,78.7,68.1,29.71,ENE,74,0.0,0.0,70,0.00,,,0.02,WeatherCatV1.21B27,2013-10-06 19:56:00,
2013-10-06 16:01:00,78.6,68.0,29.71,SE,134,0.0,3.0,70,0.00,,,0.02,WeatherCatV1.21B27,2013-10-06 20:01:00,
2013-10-06 16:06:00,78.6,68.0,29.70,NNW,336,3.0,5.0,70,0.00,,,0.02,WeatherCatV1.21B27,2013-10-06 20:06:00,
2013-10-06 16:11:00,78.7,68.5,29.70,South,172,0.0,1.0,71,0.00,,,0.02,WeatherCatV1.21B27,2013-10-06 20:11:00,
2013-10-06 16:16:00,78.6,68.4,29.70,NE,42,1.0,3.0,71,0.00,,,0.02,WeatherCatV1.21B27,2013-10-06 20:16:00,
2013-10-06 16:21:00,78.8,69.0,29.70,East,98,0.0,2.0,72,0.00,,,0.02,WeatherCatV1.21B27,2013-10-06 20:21:00,
2013-10-06 16:26:00,78.9,68.7,29.70,SSE,153,0.0,0.0,71,0.00,,,0.02,WeatherCatV1.21B27,2013-10-06 20:26:00,
2013-10-06 16:31:00,78.9,68.7,29.69,East,101,0.0,0.0,71,0.00,,,0.02,WeatherCatV1.21B27,2013-10-06 20:31:00,
2013-10-06 16:36:00,78.7,68.5,29.69,East,101,0.0,0.0,71,0.00,,,0.02,WeatherCatV1.21B27,2013-10-06 20:36:00,
2013-10-06 16:41:00,78.7,68.9,29.69,East,101,0.0,0.0,72,0.00,,,0.02,WeatherCatV1.21B27,2013-10-06 20:41:00,
2013-10-06 16:46:00,78.7,68.5,29.68,SW,236,0.0,0.0,71,0.00,,,0.02,WeatherCatV1.21B27,2013-10-06 20:46:00,
2013-10-06 16:51:00,78.8,68.6,29.68,SSE,150,0.0,0.0,71,0.00,,,0.02,WeatherCatV1.21B27,2013-10-06 20:51:00,
2013-10-06 16:56:00,79.0,68.8,29.68,ESE,113,1.0,2.0,71,0.00,,,0.02,WeatherCatV1.21B27,2013-10-06 20:56:00,
2013-10-06 17:01:00,79.1,67.6,29.68,SE,125,1.0,3.0,68,0.00,,,0.02,WeatherCatV1.21B27,2013-10-06 21:01:00,
2013-10-06 17:06:00,79.2,68.1,29.68,SE,125,0.0,1.0,69,0.00,,,0.02,WeatherCatV1.21B27,2013-10-06 21:06:00,
2013-10-06 17:11:00,78.9,68.3,29.68,SE,125,0.0,0.0,70,0.00,,,0.02,WeatherCatV1.21B27,2013-10-06 21:11:00,
2013-10-06 17:16:00,79.0,67.5,29.67,West,275,1.0,1.0,68,0.00,,,0.02,WeatherCatV1.21B27,2013-10-06 21:16:00,
2013-10-06 17:21:00,79.1,67.6,29.67,NW,311,0.0,1.0,68,0.00,,,0.02,WeatherCatV1.21B27,2013-10-06 21:21:00,
2013-10-06 17:26:00,79.0,67.5,29.68,SSW,195,0.0,0.0,68,0.00,,,0.02,WeatherCatV1.21B27,2013-10-06 21:26:00,
2013-10-06 17:31:00,79.1,68.0,29.68,South,189,0.0,0.0,69,0.00,,,0.02,WeatherCatV1.21B27,2013-10-06 21:31:00,
2013-10-06 17:36:00,79.1,67.2,29.67,ESE,106,0.0,2.0,67,0.00,,,0.02,WeatherCatV1.21B27,2013-10-06 21:36:00,
2013-10-06 17:41:00,79.0,67.1,29.67,SE,141,0.0,1.0,67,0.00,,,0.02,WeatherCatV1.21B27,2013-10-06 21:41:00,
2013-10-06 17:46:00,78.9,67.8,29.68,SE,142,0.0,0.0,69,0.00,,,0.02,WeatherCatV1.21B27,2013-10-06 21:46:00,
2013-10-06 17:51:00,78.5,67.5,29.67,SE,142,0.0,0.0,69,0.00,,,0.02,WeatherCatV1.21B27,2013-10-06 21:51:00,
2013-10-06 17:56:00,78.2,66.8,29.68,SE,142,0.0,0.0,68,0.00,,,0.02,WeatherCatV1.21B27,2013-10-06 21:56:00,
2013-10-06 18:01:00,77.9,67.3,29.68,SE,141,0.0,0.0,70,0.00,,,0.02,WeatherCatV1.21B27,2013-10-06 22:01:00,
2013-10-06 18:06:00,77.4,67.2,29.68,SE,142,0.0,0.0,71,0.00,,,0.02,WeatherCatV1.21B27,2013-10-06 22:06:00,
2013-10-06 18:11:00,77.1,67.4,29.68,SE,142,0.0,0.0,72,0.00,,,0.02,WeatherCatV1.21B27,2013-10-06 22:11:00,
2013-10-06 18:16:00,77.0,66.9,29.67,SE,142,0.0,0.0,71,0.00,,,0.02,WeatherCatV1.21B27,2013-10-06 22:16:00,
2013-10-06 18:21:00,76.8,67.1,29.67,SE,142,0.0,0.0,72,0.00,,,0.02,WeatherCatV1.21B27,2013-10-06 22:21:00,
2013-10-06 18:26:00,76.6,66.5,29.67,SE,142,0.0,0.0,71,0.00,,,0.02,WeatherCatV1.21B27,2013-10-06 22:26:00,
2013-10-06 18:31:00,76.4,67.1,29.67,SE,142,0.0,0.0,73,0.00,,,0.02,WeatherCatV1.21B27,2013-10-06 22:31:00,
2013-10-06 18:36:00,76.1,67.2,29.67,SE,141,0.0,0.0,74,0.00,,,0.02,WeatherCatV1.21B27,2013-10-06 22:36:00,
2013-10-06 18:41:00,75.8,66.5,29.67,SE,142,0.0,0.0,73,0.00,,,0.02,WeatherCatV1.21B27,2013-10-06 22:41:00,
2013-10-06 18:46:00,75.6,66.3,29.67,SE,142,0.0,0.0,73,0.00,,,0.02,WeatherCatV1.21B27,2013-10-06 22:46:00,
2013-10-06 18:51:00,75.5,66.6,29.67,SE,142,0.0,0.0,74,0.00,,,0.02,WeatherCatV1.21B27,2013-10-06 22:51:00,
2013-10-06 18:56:00,75.3,66.0,29.67,East,83,0.0,0.0,73,0.00,,,0.02,WeatherCatV1.21B27,2013-10-06 22:56:00,
2013-10-06 19:01:00,75.3,66.4,29.67,East,83,0.0,0.0,74,0.00,,,0.02,WeatherCatV1.21B27,2013-10-06 23:01:00,
2013-10-06 19:06:00,75.2,65.9,29.66,East,83,0.0,0.0,73,0.00,,,0.02,WeatherCatV1.21B27,2013-10-06 23:06:00,
2013-10-06 19:11:00,75.2,65.5,29.66,East,83,0.0,0.0,72,0.00,,,0.02,WeatherCatV1.21B27,2013-10-06 23:11:00,
2013-10-06 19:16:00,75.4,66.1,29.66,East,83,0.0,0.0,73,0.00,,,0.02,WeatherCatV1.21B27,2013-10-06 23:16:00,
2013-10-06 19:21:00,75.3,65.6,29.66,East,82,0.0,1.0,72,0.00,,,0.02,WeatherCatV1.21B27,2013-10-06 23:21:00,
2013-10-06 19:26:00,75.3,65.6,29.66,East,82,0.0,0.0,72,0.00,,,0.02,WeatherCatV1.21B27,2013-10-06 23:26:00,
2013-10-06 19:31:00,75.2,65.5,29.66,East,82,0.0,0.0,72,0.00,,,0.02,WeatherCatV1.21B27,2013-10-06 23:31:00,
2013-10-06 19:36:00,75.2,65.5,29.66,East,87,0.0,0.0,72,0.00,,,0.02,WeatherCatV1.21B27,2013-10-06 23:36:00,
2013-10-06 19:41:00,75.3,65.2,29.66,South,171,0.0,0.0,71,0.00,,,0.02,WeatherCatV1.21B27,2013-10-06 23:41:00,
2013-10-06 19:46:00,75.4,65.7,29.66,South,171,0.0,0.0,72,0.00,,,0.02,WeatherCatV1.21B27,2013-10-06 23:46:00,
2013-10-06 19:52:00,75.4,65.3,29.66,South,180,0.0,0.0,71,0.00,,,0.02,WeatherCatV1.21B27,2013-10-06 23:52:00,
2013-10-06 19:57:00,75.5,65.4,29.66,SSE,153,0.0,0.0,71,0.00,,,0.02,WeatherCatV1.21B27,2013-10-06 23:57:00,
2013-10-06 20:02:00,75.5,65.4,29.65,SSE,155,0.0,0.0,71,0.00,,,0.02,WeatherCatV1.21B27,2013-10-07 00:02:00,
2013-10-06 20:07:00,75.5,65.0,29.65,NW,312,0.0,0.0,70,0.00,,,0.02,WeatherCatV1.21B27,2013-10-07 00:07:00,
2013-10-06 20:12:00,75.6,65.1,29.64,ENE,71,0.0,0.0,70,0.00,,,0.02,WeatherCatV1.21B27,2013-10-07 00:12:00,
2013-10-06 20:17:00,75.8,64.9,29.65,ESE,121,0.0,0.0,69,0.00,,,0.02,WeatherCatV1.21B27,2013-10-07 00:17:00,
2013-10-06 20:22:00,75.9,65.0,29.65,SE,142,0.0,0.0,69,0.00,,,0.02,WeatherCatV1.21B27,2013-10-07 00:22:00,
2013-10-06 20:27:00,75.9,64.6,29.65,SSE,155,0.0,0.0,68,0.00,,,0.02,WeatherCatV1.21B27,2013-10-07 00:27:00,
2013-10-06 20:32:00,75.9,64.6,29.65,West,279,1.0,2.0,68,0.00,,,0.02,WeatherCatV1.21B27,2013-10-07 00:32:00,
2013-10-06 20:37:00,76.0,64.2,29.65,South,173,0.0,0.0,67,0.00,,,0.02,WeatherCatV1.21B27,2013-10-07 00:37:00,
2013-10-06 20:42:00,76.0,64.2,29.65,South,174,0.0,0.0,67,0.00,,,0.02,WeatherCatV1.21B27,2013-10-07 00:42:00,
2013-10-06 20:47:00,75.9,64.1,29.65,SE,130,0.0,0.0,67,0.00,,,0.02,WeatherCatV1.21B27,2013-10-07 00:47:00,
2013-10-06 20:52:00,75.9,64.6,29.65,SE,130,0.0,0.0,68,0.00,,,0.02,WeatherCatV1.21B27,2013-10-07 00:52:00,
2013-10-06 20:57:00,75.7,64.0,29.65,ESE,107,0.0,0.0,67,0.00,,,0.02,WeatherCatV1.21B27,2013-10-07 00:57:00,
2013-10-06 21:02:00,75.8,64.0,29.65,ESE,112,0.0,1.0,67,0.00,,,0.02,WeatherCatV1.21B27,2013-10-07 01:02:00,
2013-10-06 21:07:00,75.8,64.0,29.64,ESE,111,0.0,5.0,67,0.00,,,0.02,WeatherCatV1.21B27,2013-10-07 01:07:00,
2013-10-06 21:12:00,75.9,63.7,29.64,SSE,152,0.0,0.0,66,0.00,,,0.02,WeatherCatV1.21B27,2013-10-07 01:12:00,
2013-10-06 21:17:00,76.1,63.9,29.64,SE,126,0.0,2.0,66,0.00,,,0.02,WeatherCatV1.21B27,2013-10-07 01:17:00,
2013-10-06 21:22:00,76.2,63.5,29.65,SE,130,0.0,0.0,65,0.00,,,0.02,WeatherCatV1.21B27,2013-10-07 01:22:00,
2013-10-06 21:27:00,76.2,64.0,29.65,ENE,78,0.0,2.0,66,0.00,,,0.02,WeatherCatV1.21B27,2013-10-07 01:27:00,
2013-10-06 21:32:00,75.9,63.7,29.66,SSE,158,2.0,4.0,66,0.00,,,0.02,WeatherCatV1.21B27,2013-10-07 01:32:00,
2013-10-06 21:37:00,76.9,63.3,29.67,SSW,197,4.0,10.0,63,0.00,,,0.02,WeatherCatV1.21B27,2013-10-07 01:37:00,
2013-10-06 21:42:00,77.4,63.3,29.67,SW,214,3.0,6.0,62,0.00,,,0.02,WeatherCatV1.21B27,2013-10-07 01:42:00,
2013-10-06 21:47:00,76.7,63.6,29.67,South,175,2.0,5.0,64,0.00,,,0.02,WeatherCatV1.21B27,2013-10-07 01:47:00,
2013-10-06 21:52:00,75.6,63.8,29.67,SW,225,3.0,6.0,67,0.00,,,0.02,WeatherCatV1.21B27,2013-10-07 01:52:00,
2013-10-06 21:57:00,74.2,64.2,29.66,West,270,3.0,9.0,71,0.00,,,0.02,WeatherCatV1.21B27,2013-10-07 01:57:00,
2013-10-06 22:02:00,72.3,64.3,29.68,SW,215,0.0,4.0,76,0.00,,,0.02,WeatherCatV1.21B27,2013-10-07 02:02:00,
2013-10-06 22:07:00,71.1,63.9,29.68,South,180,0.0,3.0,78,0.00,,,0.02,WeatherCatV1.21B27,2013-10-07 02:07:00,
2013-10-06 22:12:00,70.6,63.8,29.67,SSW,192,2.0,3.0,79,0.00,,,0.02,WeatherCatV1.21B27,2013-10-07 02:12:00,
2013-10-06 22:17:00,70.4,63.9,29.68,SSW,192,1.0,1.0,80,0.00,,,0.02,WeatherCatV1.21B27,2013-10-07 02:17:00,
2013-10-06 22:22:00,70.3,63.8,29.67,SSW,192,0.0,0.0,80,0.00,,,0.02,WeatherCatV1.21B27,2013-10-07 02:22:00,
2013-10-06 22:27:00,70.1,64.0,29.67,NNW,333,1.0,4.0,81,0.00,,,0.02,WeatherCatV1.21B27,2013-10-07 02:27:00,
2013-10-06 22:32:00,69.9,64.1,29.68,SSE,160,0.0,0.0,82,0.00,,,0.02,WeatherCatV1.21B27,2013-10-07 02:32:00,
2013-10-06 22:37:00,69.7,64.0,29.68,SSW,194,1.0,2.0,82,0.00,,,0.02,WeatherCatV1.21B27,2013-10-07 02:37:00,
2013-10-06 22:42:00,69.5,64.1,29.68,South,187,4.0,4.0,83,0.00,,,0.02,WeatherCatV1.21B27,2013-10-07 02:42:00,
2013-10-06 22:47:00,69.1,63.7,29.69,SW,215,3.0,12.0,83,0.00,,,0.02,WeatherCatV1.21B27,2013-10-07 02:47:00,
2013-10-06 22:52:00,67.3,62.0,29.69,West,277,4.0,10.0,83,0.00,,,0.02,WeatherCatV1.21B27,2013-10-07 02:52:00,
2013-10-06 22:57:00,66.2,61.5,29.70,SW,221,5.0,14.0,85,0.00,,,0.02,WeatherCatV1.21B27,2013-10-07 02:57:00,
2013-10-06 23:02:00,65.8,61.5,29.69,WNW,284,5.0,5.0,86,0.00,,,0.02,WeatherCatV1.21B27,2013-10-07 03:02:00,
2013-10-06 23:07:00,65.5,61.2,29.69,West,274,4.0,7.0,86,0.00,,,0.03,WeatherCatV1.21B27,2013-10-07 03:07:00,
2013-10-06 23:12:00,64.8,60.8,29.71,SSW,208,4.0,7.0,87,0.00,,,0.03,WeatherCatV1.21B27,2013-10-07 03:12:00,
2013-10-06 23:17:00,64.2,60.6,29.71,West,275,5.0,11.0,88,0.18,,,0.05,WeatherCatV1.21B27,2013-10-07 03:17:00,
2013-10-06 23:22:00,63.6,60.0,29.70,West,271,0.0,7.0,88,0.21,,,0.08,WeatherCatV1.21B27,2013-10-07 03:22:00,
2013-10-06 23:27:00,63.1,59.5,29.71,WSW,250,0.0,5.0,88,0.59,,,0.09,WeatherCatV1.21B27,2013-10-07 03:27:00,
2013-10-06 23:32:00,62.7,59.4,29.71,SSW,202,5.0,5.0,89,0.12,,,0.10,WeatherCatV1.21B27,2013-10-07 03:32:00,
2013-10-06 23:37:00,62.3,59.0,29.72,SW,214,4.0,7.0,89,0.11,,,0.11,WeatherCatV1.21B27,2013-10-07 03:37:00,
2013-10-06 23:42:00,62.1,58.8,29.72,WNW,291,2.0,4.0,89,0.06,,,0.11,WeatherCatV1.21B27,2013-10-07 03:42:00,
2013-10-06 23:47:00,61.5,58.2,29.72,SW,225,5.0,7.0,89,0.04,,,0.11,WeatherCatV1.21B27,2013-10-07 03:47:00,
2013-10-06 23:52:00,61.1,57.5,29.71,West,259,4.0,6.0,88,0.00,,,0.11,WeatherCatV1.21B27,2013-10-07 03:52:00,
2013-10-06 23:57:00,60.6,57.0,29.71,West,260,4.0,4.0,88,0.00,,,0.12,WeatherCatV1.21B27,2013-10-07 03:57:00,